• Join FlightAware (Why Join?)
  • Login
  • US Flag 
Rudolph Flight #1: Arrived! 
07:17PM EST


 

Airport Tracker/Info


-or-


 

Live Flight TrackerFlight Track Log ✈ LXJ537 ✈ 27-Jul-2013 ✈ KTEB - KHOU

Flight Track Log - Related Links

Times and Time Zones

All times are in EDT time to prevent confusion due to time zone crossing. See the LXJ537 flight status page for this flight to view local times or setup timezone preferences in your user account.

Time Position Orientation Groundspeed Altitude Reporting Facility
EDT Latitude Longitude Course Direction KTS MPH feet Rate Location/Type
04:56PM 40.8167 -74.1167 270° West 211 243 3,100  Level New York TRACON
04:57PM 40.7667 -74.1667 217° Southwest 256 295 7,200 3,600 Climbing New York TRACON
04:58PM 40.7500 -74.2667 258° West 290 334 10,400 3,420 Climbing New York TRACON
04:59PM 40.7167 -74.3500 242° Southwest 291 335 14,100 3,000 Climbing New York TRACON
05:00PM 40.6833 -74.4667 249° West 329 379 16,400 1,140 Climbing New York TRACON
05:01PM 40.6000 -74.8477 270° West  Level FlightAware Approximate
05:01PM 40.6428 -74.6794 256° West 388 447 17,200  Level New York Center
05:02PM 40.6111 -74.8114 252° West 388 447 19,600 2,400 Climbing New York Center
05:03PM 40.5794 -74.9461 253° West 394 453 22,000 2,460 Climbing New York Center
05:04PM 40.5333 -75.0689 244° Southwest 394 453 24,600 2,400 Climbing New York Center
05:05PM 40.4669 -75.1739 230° Southwest 377 434 26,800 1,800 Climbing New York Center
05:06PM 40.4003 -75.2842 232° Southwest 387 445 28,200 1,320 Climbing New York Center
05:07PM 40.3294 -75.3939 230° Southwest 399 459 29,500 1,620 Climbing New York Center
05:08PM 40.2561 -75.5086 230° Southwest 411 473 31,500 1,740 Climbing New York Center
05:09PM 40.1906 -75.6292 235° Southwest 411 473 33,100 1,320 Climbing New York Center
05:10PM 40.1269 -75.7578 237° Southwest 417 480 34,300 1,860 Climbing New York Center
05:11PM 40.0653 -75.8808 237° Southwest 417 480 36,800 2,280 Climbing New York Center
05:12PM 40.0058 -76.0014 237° Southwest 411 473 38,900 1,560 Climbing New York Center
05:13PM 39.9464 -76.1186 237° Southwest 400 460 40,100 1,080 Climbing New York Center
05:14PM 39.8808 -76.2328 233° Southwest 400 460 41,100 960 Climbing New York Center
05:15PM 39.8211 -76.3497 236° Southwest 400 460 42,100 720 Climbing New York Center
05:16PM 39.7606 -76.4661 236° Southwest 403 464 42,700 420 Climbing Washington Center
05:17PM 39.6992 -76.5839 236° Southwest 398 458 43,000 120 Climbing Washington Center
05:18PM 39.6333 -76.7097 236° Southwest 403 464 43,000  Level Washington Center
05:19PM 39.5675 -76.8353 236° Southwest 417 480 43,000  Level Washington Center
05:20PM 39.5017 -76.9631 236° Southwest 425 489 43,000  Level Washington Center
05:21PM 39.4128 -77.0664 222° Southwest 431 496 43,000  Level Washington Center
05:22PM 39.3178 -77.1636 218° Southwest 431 496 43,000  Level Washington Center
05:23PM 39.2250 -77.2633 220° Southwest 437 503 43,000  Level Washington Center
05:24PM 39.1522 -77.3850 232° Southwest 431 496 43,000  Level Washington Center
05:25PM 39.0833 -77.5356 240° Southwest 444 511 43,000  Level Washington Center
05:26PM 39.0292 -77.6572 240° Southwest 449 517 43,000  Level Washington Center
05:27PM 38.9619 -77.8047 240° Southwest 439 505 43,000  Level Washington Center
05:28PM 38.8986 -77.9494 241° Southwest 451 519 43,000  Level Washington Center
05:29PM 38.8375 -78.0808 239° Southwest 451 519 43,000  Level Washington Center
05:30PM 38.7764 -78.2119 239° Southwest 445 512 43,000  Level Washington Center
05:31PM 38.7131 -78.3453 239° Southwest 440 506 43,000  Level Washington Center
05:32PM 38.6517 -78.4761 239° Southwest 440 506 43,000  Level Washington Center
05:33PM 38.5900 -78.6117 240° Southwest 440 506 43,000  Level Washington Center
05:34PM 38.5281 -78.7444 239° Southwest 440 506 43,000  Level Washington Center
05:35PM 38.4661 -78.8744 239° Southwest 440 506 43,000  Level Washington Center
05:36PM 38.4106 -79.0044 241° Southwest 435 501 43,000  Level Washington Center
05:37PM 38.3461 -79.1339 238° Southwest 435 501 43,000  Level Washington Center
05:38PM 38.2906 -79.2558 240° Southwest 435 501 43,000  Level Washington Center
05:39PM 38.2258 -79.3847 237° Southwest 435 501 43,000  Level Washington Center
05:40PM 38.1722 -79.5008 240° Southwest 435 501 43,000  Level Washington Center
05:41PM 38.0958 -79.6606 239° Southwest 435 501 43,000  Level Washington Center
05:42PM 38.0331 -79.7917 239° Southwest 441 507 43,000  Level Washington Center
05:43PM 37.9747 -79.9094 238° Southwest 441 507 43,000  Level Washington Center
05:44PM 37.9114 -80.0375 238° Southwest 441 507 43,000  Level Washington Center
05:45PM 37.8461 -80.1703 238° Southwest 441 507 43,000  Level Washington Center
05:48PM 37.6997 -80.4556 237° Southwest 432 497 43,000  Level Indianapolis Center
05:49PM 37.6264 -80.6036 238° Southwest 429 494 43,000  Level Indianapolis Center
05:50PM 37.5650 -80.7258 238° Southwest 426 490 43,000  Level Indianapolis Center
05:51PM 37.5050 -80.8472 238° Southwest 423 487 43,000  Level Indianapolis Center
05:52PM 37.4308 -80.9925 237° Southwest 422 486 43,000  Level Indianapolis Center
05:53PM 37.3697 -81.1131 237° Southwest 422 486 43,000  Level Indianapolis Center
05:54PM 37.3094 -81.2333 238° Southwest 420 483 43,000  Level Indianapolis Center
05:55PM 37.2383 -81.3694 237° Southwest 421 484 43,000  Level Indianapolis Center
05:56PM 37.1775 -81.4928 238° Southwest 417 480 43,000  Level Indianapolis Center
05:57PM 37.1139 -81.6158 237° Southwest 418 481 43,000  Level Indianapolis Center
05:58PM 37.0492 -81.7394 237° Southwest 422 486 43,000  Level Indianapolis Center
05:59PM 36.9864 -81.8633 238° Southwest 420 483 43,000  Level Indianapolis Center
06:00PM 36.9222 -81.9856 237° Southwest 420 483 43,000  Level Indianapolis Center
06:01PM 36.8575 -82.1094 237° Southwest 423 487 43,000  Level Indianapolis Center
06:02PM 36.7819 -82.2531 237° Southwest 423 487 43,000  Level Indianapolis Center
06:03PM 36.7175 -82.3775 237° Southwest 423 487 43,000  Level Indianapolis Center
06:04PM 36.6517 -82.5006 236° Southwest 423 487 43,000  Level Indianapolis Center
06:05PM 36.5717 -82.6456 236° Southwest 425 489 43,000  Level Atlanta Center
06:06PM 36.5086 -82.7731 238° Southwest 425 489 43,000  Level Atlanta Center
06:07PM 36.4431 -82.8956 236° Southwest 430 495 43,000  Level Atlanta Center
06:08PM 36.3772 -83.0175 236° Southwest 430 495 43,000  Level Atlanta Center
06:09PM 36.3178 -83.1267 236° Southwest 430 495 43,000  Level Atlanta Center
06:10PM 36.2517 -83.2508 237° Southwest 430 495 43,000  Level Atlanta Center
06:11PM 36.1858 -83.3725 236° Southwest 430 495 43,000  Level Atlanta Center
06:12PM 36.1197 -83.4964 237° Southwest 430 495 43,000  Level Atlanta Center
06:13PM 36.0492 -83.6278 236° Southwest 430 495 43,000  Level Atlanta Center
06:14PM 35.9808 -83.7514 236° Southwest 430 495 43,000  Level Atlanta Center
06:15PM 35.9142 -83.8747 236° Southwest 436 502 43,000  Level Atlanta Center
06:16PM 35.8372 -83.9875 230° Southwest 441 507 43,000  Level Atlanta Center
06:17PM 35.7558 -84.0975 228° Southwest 441 507 43,000  Level Atlanta Center
06:18PM 35.6764 -84.2100 229° Southwest 446 513 43,000  Level Atlanta Center
06:19PM 35.5969 -84.3222 229° Southwest 446 513 43,000  Level Atlanta Center
06:20PM 35.5175 -84.4342 229° Southwest 441 507 43,000  Level Atlanta Center
06:21PM 35.4336 -84.5461 227° Southwest 436 502 43,000  Level Atlanta Center
06:22PM 35.3536 -84.6550 228° Southwest 436 502 43,000  Level Atlanta Center
06:23PM 35.2739 -84.7689 229° Southwest 436 502 43,000  Level Atlanta Center
06:24PM 35.2086 -84.8572 228° Southwest 441 507 43,000  Level Atlanta Center
06:25PM 35.1200 -84.9808 229° Southwest 441 507 43,000  Level Atlanta Center
06:26PM 35.0356 -85.0942 228° Southwest 441 507 43,000  Level Atlanta Center
06:27PM 34.9553 -85.2069 229° Southwest 441 507 43,000  Level Atlanta Center
06:28PM 34.8708 -85.3197 228° Southwest 441 507 43,000  Level Atlanta Center
06:29PM 34.7903 -85.4272 228° Southwest 441 507 43,000  Level Atlanta Center
06:30PM 34.7056 -85.5422 228° Southwest 441 507 43,000  Level Atlanta Center
06:31PM 34.6228 -85.6542 228° Southwest 441 507 43,000  Level Atlanta Center
06:32PM 34.5378 -85.7661 227° Southwest 446 513 43,000  Level Atlanta Center
06:33PM 34.4506 -85.8828 228° Southwest 441 507 43,000  Level Atlanta Center
06:34PM 34.3919 -86.0122 241° Southwest 441 507 43,000  Level Atlanta Center
06:35PM 34.3314 -86.1467 241° Southwest 441 507 43,000  Level Atlanta Center
06:36PM 34.2728 -86.2736 241° Southwest 441 507 43,000  Level Atlanta Center
06:37PM 34.2139 -86.4050 242° Southwest 441 507 43,000  Level Atlanta Center
06:38PM 34.1550 -86.5364 242° Southwest 448 516 43,000  Level Atlanta Center
06:39PM 34.0981 -86.6653 242° Southwest 448 516 43,000  Level Atlanta Center
06:40PM 34.0367 -86.7989 241° Southwest 448 516 43,000  Level Atlanta Center
06:41PM 33.9775 -86.9294 241° Southwest 448 516 43,000  Level Atlanta Center
06:42PM 33.9181 -87.0578 241° Southwest 448 516 43,000  Level Atlanta Center
06:43PM 33.8583 -87.1908 242° Southwest 448 516 43,000  Level Atlanta Center
06:44PM 33.7983 -87.3236 241° Southwest 448 516 43,000  Level Atlanta Center
06:45PM 33.7339 -87.4597 240° Southwest 431 496 43,000  Level Memphis Center
06:46PM 33.6744 -87.5914 242° Southwest 443 510 43,000  Level Memphis Center
06:47PM 33.6167 -87.7206 242° Southwest 448 516 43,000  Level Memphis Center
06:48PM 33.5567 -87.8494 241° Southwest 448 516 43,000  Level Memphis Center
06:49PM 33.4967 -87.9808 241° Southwest 448 516 43,000  Level Memphis Center
06:50PM 33.4344 -88.1094 240° Southwest 448 516 43,000  Level Memphis Center
06:51PM 33.3822 -88.2350 244° Southwest 442 509 43,000  Level Memphis Center
06:52PM 33.3197 -88.3633 240° Southwest 442 509 43,000  Level Memphis Center
06:53PM 33.2592 -88.4914 241° Southwest 442 509 43,000  Level Memphis Center
06:54PM 33.1983 -88.6194 240° Southwest 442 509 43,000  Level Memphis Center
06:55PM 33.1436 -88.7394 241° Southwest 448 516 43,000  Level Memphis Center
06:56PM 33.0825 -88.8647 240° Southwest 448 516 43,000  Level Memphis Center
06:57PM 33.0214 -88.9919 240° Southwest 448 516 43,000  Level Memphis Center
06:58PM 32.9600 -89.1192 240° Southwest 448 516 43,000  Level Memphis Center
06:59PM 32.8986 -89.2439 240° Southwest 448 516 43,000  Level Memphis Center
07:00PM 32.8369 -89.3708 240° Southwest 448 516 43,000  Level Memphis Center
07:01PM 32.7753 -89.4975 240° Southwest 448 516 43,000  Level Memphis Center
07:02PM 32.7136 -89.6239 240° Southwest 448 516 43,000  Level Memphis Center
07:03PM 32.6494 -89.7503 239° Southwest 448 516 43,000  Level Memphis Center
07:04PM 32.5833 -89.8864 240° Southwest 448 516 43,000  Level Memphis Center
07:05PM 32.5233 -90.0125 241° Southwest 448 516 43,000  Level Memphis Center
07:06PM 32.4631 -90.1358 240° Southwest 448 516 43,000  Level Memphis Center
07:07PM 32.3983 -90.2614 239° Southwest 448 516 43,000  Level Memphis Center
07:08PM 32.3419 -90.3744 239° Southwest 448 516 43,000  Level Memphis Center
07:09PM 32.2814 -90.4975 240° Southwest 448 516 43,000  Level Memphis Center
07:10PM 32.2186 -90.6200 239° Southwest 448 516 43,000  Level Memphis Center
07:11PM 32.1506 -90.7639 241° Southwest 443 510 43,000  Level Houston Center
07:13PM 32.0856 -90.8950 240° Southwest 443 510 43,000  Level Houston Center
07:14PM 32.0103 -91.0436 239° Southwest 442 509 43,000  Level Houston Center
07:15PM 31.9469 -91.1681 239° Southwest 444 511 43,000  Level Houston Center
07:16PM 31.8839 -91.2911 239° Southwest 442 509 43,000  Level Houston Center
07:17PM 31.8197 -91.4147 239° Southwest 443 510 43,000  Level Houston Center
07:18PM 31.7564 -91.5389 239° Southwest 446 513 43,000  Level Houston Center
07:19PM 31.6928 -91.6622 239° Southwest 444 511 43,000  Level Houston Center
07:20PM 31.6283 -91.7872 239° Southwest 449 517 43,000  Level Houston Center
07:21PM 31.5636 -91.9111 239° Southwest 448 516 43,000  Level Houston Center
07:22PM 31.4864 -92.0572 238° Southwest 448 516 43,000  Level Houston Center
07:23PM 31.4222 -92.1806 239° Southwest 447 514 43,000  Level Houston Center
07:24PM 31.3578 -92.3047 239° Southwest 449 517 43,000  Level Houston Center
07:25PM 31.2919 -92.4289 238° Southwest 453 521 43,000 -60 Level Houston Center
07:26PM 31.2331 -92.5544 241° Southwest 446 513 42,900  Descending Houston Center
07:27PM 31.1900 -92.6814 248° West 427 491 43,000  Climbing Houston Center
07:28PM 31.1450 -92.8003 246° West 408 470 43,000  Level Houston Center
07:29PM 31.1025 -92.9172 247° West 397 457 43,000  Level Houston Center
07:30PM 31.0508 -93.0569 247° West 393 452 43,000  Level Houston Center
07:31PM 31.0067 -93.1728 246° West 393 452 43,000  Level Houston Center
07:32PM 30.9628 -93.2900 246° West 394 453 43,000  Level Houston Center
07:33PM 30.9189 -93.4081 247° West 399 459 43,000  Level Houston Center
07:34PM 30.8739 -93.5269 246° West 404 465 43,000  Level Houston Center
07:35PM 30.8314 -93.6461 247° West 403 464 43,000  Level Houston Center
07:36PM 30.8181 -93.7717 263° West 399 459 43,000  Level Houston Center
07:37PM 30.8022 -93.9167 263° West 383 441 43,000  Level Houston Center
07:38PM 30.7897 -94.0378 263° West 380 437 43,000  Level Houston Center
07:39PM 30.7789 -94.1528 264° West 366 421 43,000  Level Houston Center
07:40PM 30.8161 -94.2464 295° West 324 373 43,000  Level Houston Center
07:41PM 30.9014 -94.2883 337° Northwest 333 383 43,000  Level Houston Center
07:42PM 30.9914 -94.2525 19° North 336 387 43,000  Level Houston Center
07:43PM 31.0669 -94.1419 51° Northeast 368 423 43,000  Level Houston Center
07:44PM 31.0731 -94.0142 87° East 400 460 43,000  Level Houston Center
07:45PM 31.0561 -93.8786 98° East 416 479 43,000 -780 Level Houston Center
07:46PM 31.0417 -93.7458 97° East 412 474 41,500 -1,560 Descending Houston Center
07:47PM 31.0261 -93.6061 97° East 430 495 39,900 -1,920 Descending Houston Center
07:48PM 31.0114 -93.4667 97° East 432 497 37,700 -2,460 Descending Houston Center
07:49PM 30.9936 -93.3253 98° East 439 505 34,900 -2,940 Descending Houston Center
07:50PM 30.9764 -93.1833 98° East 441 507 31,700 -3,420 Descending Houston Center
07:51PM 30.9039 -93.0706 127° Southeast 475 547 27,900 -3,420 Descending Houston Center
07:52PM 30.7856 -93.0983 191° South 445 512 24,700 -1,980 Descending Houston Center
07:53PM 30.7075 -93.1886 225° Southwest 396 456 23,900 -360 Descending Houston Center
07:55PM 30.6289 -93.2797 225° Southwest 398 458 24,000  Climbing Houston Center
07:56PM 30.5706 -93.4094 242° Southwest 390 449 24,000  Level Houston Center
07:57PM 30.5575 -93.5306 263° West 386 444 24,000  Level Houston Center
07:58PM 30.5497 -93.6497 266° West 379 436 24,000  Level Houston Center
07:59PM 30.5419 -93.7697 266° West 379 436 24,000  Level Houston Center
08:00PM 30.5344 -93.8928 266° West 385 443 24,000 -300 Level Houston Center
08:01PM 30.5269 -94.0167 266° West 387 445 23,400 -1,200 Descending Houston Center
08:02PM 30.5181 -94.1614 266° West 380 437 21,600 -1,620 Descending Houston Center
08:03PM 30.5106 -94.2819 266° West 377 434 20,200 -1,440 Descending Houston Center
08:04PM 30.5036 -94.4025 266° West 377 434 18,700 -1,620 Descending Houston Center
08:05PM 30.4831 -94.5278 259° West 373 429 17,000 -1,680 Descending Houston Center
08:06PM 30.4108 -94.6469 235° Southwest 365 420 15,100 -1,500 Descending Houston Center
08:07PM 30.3664 -94.7178 234° Southwest 362 417 14,000 -1,560 Descending Houston Center
08:08PM 30.2956 -94.8264 233° Southwest 378 435 12,200 -1,500 Descending Houston Center
08:09PM 30.2467 -94.9039 234° Southwest 365 420 11,000 -1,080 Descending Houston Center
08:10PM 30.1919 -94.9878 233° Southwest 333 383 10,100 -480 Descending Houston Center
08:11PM 30.1339 -95.0664 230° Southwest 326 375 10,100 -60 Level Houston Center
08:12PM 30.0269 -95.0975 194° South 330 380 10,000 -540 Descending Houston Center
08:13PM 29.9453 -95.1058 185° South 299 344 9,000 -900 Descending Houston Center
08:14PM 29.8683 -95.1283 194° South 276 318 8,200 -1,200 Descending Houston Center
08:15PM 29.7958 -95.1489 194° South 279 321 6,600 -1,080 Descending Houston Center
08:16PM 29.7228 -95.1894 206° Southwest 272 313 6,100 -1,320 Descending Houston Center
08:17PM 29.6808 -95.2572 235° Southwest 273 314 4,000 -1,500 Descending Houston Center
08:18PM 29.6486 -95.3403 246° West 267 307 3,100 -780 Descending Houston Center
08:19PM 29.6606 -95.4039 282° West 196 226 2,500 -540 Descending Houston Center
08:20PM 29.7044 -95.4011 North 208 239 2,100 -360 Descending Houston Center
08:21PM 29.6933 -95.3469 103° East 160 184 1,800 -660 Descending Houston Center
08:22PM 29.6689 -95.3092 127° Southeast 148 170 800 -780 Descending Houston Center
08:23PM 29.6456 -95.2800 133° Southeast 154 177 200 -600 Descending Houston Center